Blandford, Massachusetts
Current Conditions -  °F | °C
As of 9:53 PM on Friday 28 Nov 2014 (Local Time) from KBAF Reporting Station
Clear Clear  
Wind Chill: -5°   Ceiling: Unl
Heat Index: -5°   Visibility: 10mi
Dew Point: -11°   Wind: 0mph
Humidity: 65%   Direction: NA
Pressure: 30.21"   Gusts: NA
Location:  42.18°N, 72.93°W
Report Text: KBAF 290253Z AUTO 00000KT 10SM CLR M05/M11 A3021 RMK AO2 SLP237 T10501106 53006
Loading
Personal Weather Stations






























Interactive Weather Map New forecast layout! Learn more

10-Day Weather Forecast

Advertisements
Track Severe Weather on mobile